Flight Track Log - Related Links

Times and Time Zones

All times are in EDT time to prevent confusion due to time zone crossing. See the N55VF flight status page for this flight to view local times or setup timezone preferences in your user account.

Time Position Orientation Groundspeed Altitude Reporting Facility
EDT Latitude Longitude Course Direction KTS MPH feet Rate Location/Type
Wed 15:28:27 39.3070 -76.6190 275° West 159 183 4,300  Level FlightAware ADS-B
Wed 15:28:32 39.3070 -76.6260 270° West 159 183 4,300 267 Level FlightAware ADS-B
Wed 15:29:12 39.3100 -76.6620 276° West 159 183 4,500 650 Climbing FlightAware ADS-B
Wed 15:30:07 39.3030 -76.5670 95° East 5,600 825 Climbing FlightAware ADS-B
Wed 15:30:32 39.3170 -76.7450 276° West 176 203 5,600  Level FlightAware ADS-B
Wed 15:30:57 39.3190 -76.7720 275° West 186 214 5,600  Level FlightAware ADS-B
Wed 15:31:12 39.3200 -76.7860 275° West 192 221 5,600  Level FlightAware ADS-B
Wed 15:31:42 39.3230 -76.8210 276° West 195 224 5,600  Level FlightAware ADS-B
Wed 15:31:52 39.3240 -76.8350 275° West 196 226 5,600  Level FlightAware ADS-B
Wed 15:32:17 39.3260 -76.8620 275° West 199 229 5,600  Level FlightAware ADS-B
Wed 15:32:52 39.3290 -76.9050 275° West 199 229 5,600  Level FlightAware ADS-B
Wed 15:33:22 39.3320 -76.9390 277° West 199 229 5,600  Level FlightAware ADS-B
Wed 15:33:42 39.3340 -76.9610 277° West 198 228 5,600  Level FlightAware ADS-B
Wed 15:33:57 39.3350 -76.9810 274° West 198 228 5,600  Level FlightAware ADS-B
Wed 15:34:12 39.3370 -76.9990 278° West 199 229 5,600  Level FlightAware ADS-B
Wed 15:34:47 39.3400 -77.0410 275° West 198 228 5,600  Level FlightAware ADS-B
Wed 15:35:17 39.3420 -77.0760 274° West 198 228 5,600  Level FlightAware ADS-B
Wed 15:35:22 39.3430 -77.0860 277° West 198 228 5,600  Level FlightAware ADS-B
Wed 15:36:02 39.3460 -77.1290 275° West 197 227 5,600  Level FlightAware ADS-B
Wed 15:36:27 39.3470 -77.1580 273° West 197 227 5,600  Level FlightAware ADS-B
Wed 15:36:47 39.3490 -77.1840 276° West 197 227 5,600  Level FlightAware ADS-B
Wed 15:37:17 39.3520 -77.2260 275° West 198 228 5,600  Level FlightAware ADS-B
Wed 15:37:52 39.3540 -77.2620 274° West 198 228 5,600  Level FlightAware ADS-B
Wed 15:38:22 39.3550 -77.2910 273° West 198 228 5,600  Level FlightAware ADS-B
Wed 15:38:57 39.3580 -77.3320 275° West 199 229 5,600  Level FlightAware ADS-B
Wed 15:39:32 39.3610 -77.3840 274° West 199 229 5,600  Level FlightAware ADS-B
Wed 15:39:57 39.3620 -77.4110 273° West 200 230 5,600  Level FlightAware ADS-B
Wed 15:40:12 39.3640 -77.4320 277° West 199 229 5,600  Level FlightAware ADS-B
Wed 15:40:32 39.3650 -77.4560 273° West 200 230 5,600  Level FlightAware ADS-B
Wed 15:41:07 39.3670 -77.4940 274° West 200 230 5,600  Level FlightAware ADS-B
Wed 15:41:37 39.3690 -77.5290 274° West 201 231 5,600  Level FlightAware ADS-B
Wed 15:41:52 39.3700 -77.5490 274° West 200 230 5,600  Level FlightAware ADS-B
Wed 15:42:12 39.3710 -77.5700 274° West 200 230 5,600  Level FlightAware ADS-B
Wed 15:42:57 39.3740 -77.6210 274° West 200 230 5,600  Level FlightAware ADS-B
Wed 15:43:27 39.3760 -77.6610 274° West 201 231 5,600  Level FlightAware ADS-B
Wed 15:43:52 39.3780 -77.6890 275° West 200 230 5,600  Level FlightAware ADS-B
Wed 15:44:17 39.3820 -77.7220 279° West 202 232 5,600 133 Level FlightAware ADS-B
Wed 15:44:37 39.3900 -77.7390 301° West 198 228 5,700 400 Climbing FlightAware ADS-B
Wed 15:44:47 39.3980 -77.7500 313° West 192 221 5,800 400 Climbing FlightAware ADS-B
Wed 15:45:22 39.4170 -77.7790 310° West 191 220 6,000 257 Climbing FlightAware ADS-B
Wed 15:45:57 39.4330 -77.8090 305° West 193 222 6,100 100 Climbing FlightAware ADS-B
Wed 15:46:22 39.4450 -77.8310 305° West 193 222 6,100 1,000 Level FlightAware ADS-B
Wed 15:46:39 39.4550 -77.8547 305° West 195 224 6,800 769 Climbing Washington Center
Wed 15:47:40 39.4850 -77.9094 305° West 190 219 7,100 252 Climbing Washington Center
Wed 15:48:38 39.5153 -77.9614 307° West 190 219 7,300 252 Climbing Washington Center
Wed 15:49:39 39.5456 -78.0189 304° West 190 219 7,600 344 Climbing Washington Center
Wed 15:50:40 39.5736 -78.0711 305° West 190 219 8,000 167 Climbing Washington Center
Wed 15:52:39 39.6356 -78.1894 304° West 195 224 8,100  Climbing Cleveland Center
Wed 15:53:39 39.6703 -78.2528 305° West 199 229 8,000  Descending Cleveland Center
Wed 15:54:40 39.7006 -78.3139 303° West 200 230 8,100 50 Climbing Cleveland Center
Wed 15:55:40 39.7331 -78.3694 307° West 199 229 8,100 -50 Level Cleveland Center
Wed 15:56:41 39.7633 -78.4281 304° West 200 230 8,000 -49 Descending Cleveland Center
Wed 15:57:42 39.8000 -78.4917 307° West 199 229 8,000 52 Level Cleveland Center
Wed 15:58:36 39.8281 -78.5447 305° West 199 229 8,100 52 Climbing Cleveland Center
Wed 15:59:37 39.8561 -78.6036 302° West 199 229 8,100 -50 Level Cleveland Center
Wed 16:00:37 39.8906 -78.6619 308° West 200 230 8,000 -50 Descending Cleveland Center
Wed 16:01:38 39.9206 -78.7208 304° West 201 231 8,000  Level Cleveland Center
Wed 16:02:39 39.9550 -78.7847 305° West 201 231 8,000  Level Cleveland Center
Wed 16:03:39 39.9850 -78.8436 304° West 200 230 8,000  Level Cleveland Center
Wed 16:04:40 40.0172 -78.9078 303° West 201 231 8,000  Level Cleveland Center
Wed 16:05:41 40.0494 -78.9639 307° West 200 230 8,000  Level Cleveland Center
Wed 16:06:47 40.0836 -79.0311 304° West 198 228 8,000  Level Cleveland Center
Wed 16:07:48 40.1158 -79.0928 304° West 199 229 8,000  Level Cleveland Center
Wed 16:08:49 40.1458 -79.1517 304° West 198 228 8,000  Level Cleveland Center
Wed 16:09:49 40.1778 -79.2081 307° West 199 229 8,000  Level Cleveland Center
Wed 16:10:50 40.2097 -79.2756 302° West 198 228 8,000  Level Cleveland Center
Wed 16:11:50 40.2417 -79.3347 305° West 201 231 8,000  Level Cleveland Center
Wed 16:12:51 40.2714 -79.3911 305° West 199 229 8,000  Level Cleveland Center
Wed 16:14:00 40.3101 -79.4489 311° West  Level FlightAware Approximate
Wed 16:21:00 40.5222 -79.8288 303° West  Level FlightAware Approximate
Wed 16:22:00 40.5501 -79.8850 303° West  Level FlightAware Approximate
Wed 16:23:00 40.5779 -79.9413 303° West  Level FlightAware Approximate
Wed 16:24:00 40.6057 -79.9976 303° West  Level FlightAware Approximate
Wed 16:25:00 40.6335 -80.0540 303° West  Level FlightAware Approximate
Wed 16:26:00 40.6613 -80.1104 303° West  Level FlightAware Approximate
Wed 16:27:00 40.6890 -80.1668 303° West  Level FlightAware Approximate
Wed 16:28:00 40.7167 -80.2234 303° West  Level FlightAware Approximate
Wed 16:29:00 40.7444 -80.2799 303° West  Level FlightAware Approximate
Wed 16:30:00 40.7720 -80.3365 303° West  Level FlightAware Approximate
Wed 16:31:00 40.7996 -80.3932 303° West  Level FlightAware Approximate
Wed 16:32:00 40.8272 -80.4499 303° West  Level FlightAware Approximate
Wed 16:33:00 40.8548 -80.5066 303° West  Level FlightAware Approximate
Wed 16:34:00 40.8823 -80.5634 303° West  Level FlightAware Approximate
Wed 16:35:00 40.9085 -80.6213 298° West  Level FlightAware Approximate
Wed 16:36:00 40.9324 -80.6809 298° West  Level FlightAware Approximate
Wed 16:37:00 40.9563 -80.7406 298° West  Level FlightAware Approximate
Wed 16:38:00 40.9850 -80.7960 310° West  Level FlightAware Approximate
Wed 16:39:00 41.0176 -80.8481 310° West  Level FlightAware Approximate
Wed 16:40:00 41.0501 -80.9002 294° West  Level FlightAware Approximate
Wed 16:41:00 41.0707 -80.9621 294° West  Level FlightAware Approximate
Wed 16:42:00 41.0943 -81.0218 304° West  Level FlightAware Approximate
Wed 16:43:00 41.1225 -81.0782 304° West  Level FlightAware Approximate
Wed 16:44:00 41.1507 -81.1346 304° West  Level FlightAware Approximate
Wed 16:45:00 41.1790 -81.1911 304° West  Level FlightAware Approximate
Wed 16:46:00 41.2000 -81.2500 270° West  Level FlightAware Approximate
Wed 16:47:00 41.2102 -81.2516 270° West  Level Estimated
Wed 16:48:00 41.2102 -81.2516 270° West  Level Estimated
Wed 16:49:00 41.2102 -81.2516 270° West  Level Estimated
Wed 16:50:00 41.2102 -81.2516 270° West  Level Estimated
Wed 16:51:00 41.2102 -81.2516 270° West  Level Estimated
Wed 16:52:00 41.2102 -81.2516 270° West  Level Estimated
Wed 16:53:00 41.2102 -81.2516 270° West  Level Estimated
Wed 16:54:00 41.2102 -81.2516 270° West  Level Estimated
Wed 16:55:00 41.2102 -81.2516 270° West  Level Estimated
Wed 16:56:00 41.2102 -81.2516 270° West  Level Estimated
Wed 16:57:00 41.2102 -81.2516 270° West  Level Estimated
Wed 16:58:00 41.2102 -81.2516 270° West  Level Estimated
Wed 16:59:00 41.2102 -81.2516 270° West  Level Estimated
Wed 17:00:00 41.2102 -81.2516 270° West  Level Estimated
Wed 17:01:00 41.2102 -81.2516 270° West  Level Estimated
Wed 17:02:00 41.2102 -81.2516 270° West  Level Estimated
Wed 17:03:00 41.2102 -81.2516 270° West  Level Estimated
Wed 17:04:00 41.2102 -81.2516 270° West  Level Estimated
Wed 17:05:00 41.2102 -81.2516 270° West  Level Estimated
Wed 17:06:00 41.2102 -81.2516 270° West  Level Estimated

Login

Don't have an account? Register now (free) for customized features, flight alerts, and more!